Time;durP1;ratioP1;P1;durP2;ratioP2;P2;SDS_P1;SDS_P2;PMS_P1;PMS_P2;Temp;Humidity;BMP_temperature;BMP_pressure;BME280_temperature;BME280_humidity;BME280_pressure;Samples;Min_cycle;Max_cycle;Signal;HPM_P1;HPM_P2
2021/12/23 00:08:09;;;;;;;19.60;8.60;;;-4.60;99.90;;;;;;21069917;28;20048;-49
2021/12/23 00:28:17;;;;;;;17.30;8.07;;;-4.80;99.90;;;;;;21068407;28;20097;-50
2021/12/23 00:38:28;;;;;;;20.00;9.10;;;-4.70;99.90;;;;;;21067779;28;20094;-50
2021/12/23 00:48:31;;;;;;;17.00;7.20;;;-4.70;99.90;;;;;;21066950;28;20097;-50
2021/12/23 00:58:34;;;;;;;12.43;6.30;;;-4.60;99.90;;;;;;21066614;28;20044;-49
2021/12/23 01:08:36;;;;;;;13.25;6.18;;;-4.70;99.90;;;;;;21065752;28;20117;-50
2021/12/23 01:18:52;;;;;;;14.02;6.10;;;-4.80;99.90;;;;;;21065757;28;20040;-50
2021/12/23 01:28:58;;;;;;;11.85;5.45;;;-4.70;99.90;;;;;;21068599;28;20321;-50
2021/12/23 01:39:02;;;;;;;10.45;4.72;;;-4.60;99.90;;;;;;21081871;28;20039;-49
2021/12/23 01:49:04;;;;;;;12.27;5.25;;;-4.50;99.90;;;;;;21081233;28;20556;-50
2021/12/23 01:59:07;;;;;;;9.15;4.60;;;-4.40;99.90;;;;;;21080052;28;20089;-49
2021/12/23 02:09:09;;;;;;;9.05;4.03;;;-4.40;99.90;;;;;;21080339;28;20044;-49
2021/12/23 02:19:20;;;;;;;8.73;4.55;;;-4.30;99.90;;;;;;21078829;28;20036;-49
2021/12/23 02:29:23;;;;;;;8.32;4.15;;;-4.20;99.90;;;;;;21078136;28;20122;-49
2021/12/23 02:39:27;;;;;;;10.85;4.43;;;-4.00;99.90;;;;;;21077323;28;20469;-49
2021/12/23 02:49:30;;;;;;;8.52;4.03;;;-4.00;99.90;;;;;;21059209;28;20105;-50
2021/12/23 02:59:32;;;;;;;10.77;4.10;;;-4.10;99.90;;;;;;21075402;28;20062;-55
2021/12/23 03:09:35;;;;;;;8.73;4.60;;;-4.50;99.90;;;;;;21074811;28;20113;-50
2021/12/23 03:19:38;;;;;;;9.25;4.40;;;-4.70;99.90;;;;;;21057350;28;20032;-49
2021/12/23 03:29:40;;;;;;;8.43;4.22;;;-4.80;99.90;;;;;;21074203;28;20484;-49
2021/12/23 03:39:43;;;;;;;16.52;3.75;;;-4.70;99.90;;;;;;21072287;28;20028;-51
2021/12/23 03:49:46;;;;;;;9.05;4.18;;;-4.60;99.90;;;;;;21071423;28;20097;-49
2021/12/23 03:59:48;;;;;;;9.85;3.80;;;-4.30;99.90;;;;;;21053834;28;20549;-49
2021/12/23 04:09:51;;;;;;;9.65;4.15;;;-4.20;99.90;;;;;;21069497;28;20720;-51
2021/12/23 04:19:59;;;;;;;6.65;3.28;;;-3.90;99.90;;;;;;21069196;28;20448;-51
2021/12/23 04:30:04;;;;;;;8.02;3.70;;;-3.80;99.90;;;;;;21068743;28;20032;-50
2021/12/23 04:40:12;;;;;;;10.57;4.07;;;-3.70;99.90;;;;;;21051476;28;20040;-49
2021/12/23 04:50:15;;;;;;;8.30;4.22;;;-3.70;99.90;;;;;;21067159;28;20036;-49
2021/12/23 05:00:20;;;;;;;8.48;3.60;;;-3.80;99.90;;;;;;21066548;28;20450;-51
2021/12/23 05:10:25;;;;;;;11.00;4.57;;;-3.90;99.90;;;;;;21065993;28;20105;-49
2021/12/23 05:20:28;;;;;;;10.50;4.82;;;-3.70;99.90;;;;;;21066641;28;20164;-52
2021/12/23 05:30:31;;;;;;;11.57;4.50;;;-3.70;99.90;;;;;;21065402;28;20131;-49
2021/12/23 05:40:35;;;;;;;10.25;4.80;;;-3.80;99.90;;;;;;21065092;28;20341;-49
2021/12/23 05:50:37;;;;;;;9.57;4.55;;;-3.80;99.90;;;;;;21064725;28;20498;-51
2021/12/23 06:00:40;;;;;;;9.50;5.18;;;-3.90;99.90;;;;;;21064319;28;20086;-49
2021/12/23 06:10:43;;;;;;;10.77;5.00;;;-3.90;99.90;;;;;;21063985;28;20376;-50
2021/12/23 06:20:45;;;;;;;14.75;6.53;;;-4.10;99.90;;;;;;21075243;28;20036;-49
2021/12/23 06:30:48;;;;;;;13.68;6.63;;;-4.20;99.90;;;;;;21077929;28;20085;-52
2021/12/23 06:40:52;;;;;;;12.82;6.60;;;-4.20;99.90;;;;;;21079319;28;20036;-50
2021/12/23 06:50:55;;;;;;;15.38;7.90;;;-4.30;99.90;;;;;;21076423;28;20028;-49
2021/12/23 07:00:58;;;;;;;15.82;7.85;;;-4.30;99.90;;;;;;21060295;28;20471;-49
2021/12/23 07:11:01;;;;;;;10.02;4.78;;;-4.30;99.90;;;;;;21075175;28;20396;-51
2021/12/23 07:21:04;;;;;;;9.73;4.05;;;-4.10;99.90;;;;;;21073964;28;20089;-50
2021/12/23 07:31:07;;;;;;;6.75;3.90;;;-3.80;99.90;;;;;;21073357;28;20066;-50
2021/12/23 07:41:10;;;;;;;7.85;3.67;;;-3.40;99.90;;;;;;21055830;28;20047;-49
2021/12/23 07:51:13;;;;;;;6.25;3.08;;;-3.00;99.90;;;;;;21071465;28;20032;-50
2021/12/23 08:01:15;;;;;;;5.82;3.17;;;-2.70;99.90;;;;;;21072313;28;20482;-50
2021/12/23 08:11:18;;;;;;;7.75;3.83;;;-2.20;99.90;;;;;;21069697;28;20101;-49
2021/12/23 08:21:22;;;;;;;6.25;3.42;;;-1.60;99.90;;;;;;21069006;28;20039;-52
2021/12/23 08:31:26;;;;;;;6.10;3.42;;;-1.50;99.90;;;;;;21068795;28;20031;-53
2021/12/23 08:41:29;;;;;;;6.00;3.38;;;-1.20;99.90;;;;;;21067611;28;20093;-50
2021/12/23 08:51:34;;;;;;;5.97;3.30;;;-0.70;99.90;;;;;;21067147;28;20035;-49
2021/12/23 09:01:39;;;;;;;5.18;3.10;;;1.00;99.90;;;;;;21068156;28;20069;-49
2021/12/23 09:11:42;;;;;;;6.15;3.58;;;1.80;99.90;;;;;;21065724;28;20048;-49
2021/12/23 09:21:45;;;;;;;5.22;3.20;;;1.20;99.90;;;;;;21065791;28;20471;-49
2021/12/23 09:42:09;;;;;;;8.07;3.40;;;1.50;99.90;;;;;;21065304;28;20172;-49
2021/12/23 09:52:12;;;;;;;5.50;3.20;;;2.70;99.90;;;;;;21071453;28;20036;-49
2021/12/23 10:02:16;;;;;;;4.28;2.50;;;4.00;99.90;;;;;;21080553;28;20062;-49
2021/12/23 10:43:11;;;;;;;4.78;2.70;;;2.00;99.90;;;;;;21101658;28;20088;-50
2021/12/23 10:53:39;;;;;;;6.72;3.33;;;2.00;99.90;;;;;;21137372;28;20040;-54
2021/12/23 11:03:45;;;;;;;10.30;4.53;;;2.60;99.90;;;;;;21076339;28;20040;-51
2021/12/23 11:45:07;;;;;;;6.03;3.28;;;2.30;99.90;;;;;;20880390;28;20045;-50
2021/12/23 11:55:10;;;;;;;9.27;5.15;;;2.40;99.90;;;;;;20879458;28;20072;-50
2021/12/23 12:05:16;;;;;;;6.25;3.67;;;2.50;99.90;;;;;;20922121;28;20089;-52
2021/12/23 12:15:37;;;;;;;5.60;3.10;;;2.40;99.90;;;;;;21068835;28;20043;-49
2021/12/23 12:25:44;;;;;;;4.63;3.45;;;2.80;99.90;;;;;;21069005;28;20035;-51
2021/12/23 12:35:57;;;;;;;4.88;2.70;;;3.00;99.90;;;;;;21068640;28;20028;-51
2021/12/23 12:46:01;;;;;;;6.18;3.20;;;3.10;99.90;;;;;;21067823;28;20585;-52
2021/12/23 12:56:07;;;;;;;5.63;3.08;;;3.40;99.90;;;;;;21066867;28;20086;-49
2021/12/23 13:06:11;;;;;;;5.47;3.20;;;3.10;99.90;;;;;;21066950;28;20052;-50
2021/12/23 13:16:57;;;;;;;5.38;2.92;;;3.10;99.90;;;;;;20874299;28;20444;-50
2021/12/23 13:27:00;;;;;;;4.63;2.70;;;3.40;99.90;;;;;;20881710;28;20091;-51
2021/12/23 13:37:06;;;;;;;5.57;3.03;;;3.40;99.90;;;;;;20890316;28;20037;-51
2021/12/23 13:47:12;;;;;;;5.22;2.78;;;3.40;99.90;;;;;;20953268;28;20395;-50
2021/12/23 13:57:19;;;;;;;5.88;3.10;;;3.20;99.90;;;;;;21081142;28;20032;-49
2021/12/23 14:07:26;;;;;;;4.38;2.58;;;3.30;99.90;;;;;;21080898;28;20085;-51
2021/12/23 14:17:39;;;;;;;6.47;2.97;;;3.00;99.90;;;;;;21079324;28;20032;-49
2021/12/23 14:27:42;;;;;;;6.55;3.30;;;2.80;99.90;;;;;;21078596;28;20821;-49
2021/12/23 14:37:45;;;;;;;6.63;3.15;;;2.60;99.90;;;;;;21077520;28;20109;-50
2021/12/23 14:47:58;;;;;;;4.85;2.67;;;2.30;99.90;;;;;;21077153;28;20056;-49
2021/12/23 14:58:03;;;;;;;4.13;2.60;;;2.20;99.90;;;;;;21076162;28;20043;-51
2021/12/23 15:08:06;;;;;;;8.20;3.15;;;2.10;99.90;;;;;;21075740;28;20330;-54
2021/12/23 15:18:28;;;;;;;8.02;3.50;;;1.60;99.90;;;;;;21074626;28;20025;-49
2021/12/23 15:28:31;;;;;;;6.53;3.50;;;1.20;99.90;;;;;;21106391;28;20031;-50
2021/12/23 15:38:33;;;;;;;5.90;3.00;;;0.80;99.90;;;;;;21072947;28;20036;-49
2021/12/23 15:48:40;;;;;;;5.50;2.90;;;0.40;99.90;;;;;;21071144;28;20118;-50
2021/12/23 15:58:45;;;;;;;4.97;2.92;;;0.00;99.90;;;;;;21071125;28;20093;-52
2021/12/23 16:08:49;;;;;;;5.78;2.90;;;-0.20;99.90;;;;;;21069971;28;20093;-50
2021/12/23 16:18:52;;;;;;;5.75;2.90;;;-0.30;99.90;;;;;;21069744;28;20077;-50
2021/12/23 16:28:56;;;;;;;9.05;3.35;;;-0.40;99.90;;;;;;21069323;28;20097;-50
2021/12/23 16:38:59;;;;;;;10.43;4.65;;;-0.50;99.90;;;;;;21068500;28;20438;-51
2021/12/23 16:49:02;;;;;;;6.80;3.58;;;-0.60;99.90;;;;;;21068814;28;20416;-51
2021/12/23 16:59:04;;;;;;;6.00;2.97;;;-0.80;99.90;;;;;;21066675;28;20093;-53
2021/12/23 17:09:07;;;;;;;9.30;3.83;;;-0.80;99.90;;;;;;21067110;28;20048;-50
2021/12/23 17:19:13;;;;;;;6.68;3.22;;;-0.90;99.90;;;;;;21067276;28;20060;-49
2021/12/23 17:29:15;;;;;;;7.70;3.90;;;-0.90;99.90;;;;;;21065539;28;20031;-50
2021/12/23 17:39:19;;;;;;;6.95;3.30;;;-0.70;99.90;;;;;;21066609;28;20073;-51
2021/12/23 17:49:22;;;;;;;9.27;4.57;;;-0.80;99.90;;;;;;21048188;28;20090;-51
2021/12/23 17:59:27;;;;;;;11.25;4.75;;;-1.00;99.90;;;;;;21064947;28;20036;-49
2021/12/23 18:09:29;;;;;;;7.68;4.53;;;-1.00;99.90;;;;;;21064530;28;20449;-48
2021/12/23 18:19:32;;;;;;;8.68;4.30;;;-1.10;99.90;;;;;;21079175;28;20065;-56
2021/12/23 18:29:36;;;;;;;7.63;3.70;;;-1.00;99.90;;;;;;21078543;28;20089;-50
2021/12/23 18:39:41;;;;;;;6.47;4.03;;;-1.00;99.90;;;;;;21062532;28;20468;-49
2021/12/23 18:49:43;;;;;;;8.38;4.60;;;-0.60;99.90;;;;;;21077039;28;20495;-50
2021/12/23 18:59:46;;;;;;;8.55;4.78;;;-0.50;99.90;;;;;;21075687;28;20524;-50
2021/12/23 19:09:49;;;;;;;7.68;3.95;;;-0.60;99.90;;;;;;21074704;28;20588;-50
2021/12/23 19:19:52;;;;;;;9.07;4.68;;;-0.80;99.90;;;;;;21057413;28;20388;-50
2021/12/23 19:29:55;;;;;;;7.90;4.45;;;-0.90;99.90;;;;;;21073181;28;20480;-55
2021/12/23 19:39:57;;;;;;;10.02;4.38;;;-0.90;99.90;;;;;;21072899;28;20040;-51
2021/12/23 19:50:00;;;;;;;10.65;4.72;;;-0.90;99.90;;;;;;21071869;28;20513;-50
2021/12/23 20:00:05;;;;;;;8.23;4.30;;;-0.90;99.90;;;;;;21072264;28;20040;-50
2021/12/23 20:10:11;;;;;;;11.35;4.68;;;-0.60;99.90;;;;;;21070043;28;20078;-49
2021/12/23 20:20:16;;;;;;;8.82;4.32;;;-0.60;99.90;;;;;;21069409;28;20032;-49
2021/12/23 20:30:22;;;;;;;7.97;4.28;;;-0.40;99.90;;;;;;21069268;28;20399;-50
2021/12/23 20:40:28;;;;;;;7.55;4.53;;;-0.60;99.90;;;;;;21067891;28;20093;-50
2021/12/23 20:50:33;;;;;;;7.82;4.13;;;-0.80;99.90;;;;;;21067148;28;20032;-49
2021/12/23 21:00:41;;;;;;;6.85;4.05;;;-0.60;99.90;;;;;;21066684;28;20036;-49
2021/12/23 21:10:45;;;;;;;5.80;3.42;;;-0.20;99.90;;;;;;21066160;28;20123;-51
2021/12/23 21:20:53;;;;;;;6.88;3.47;;;-0.10;99.90;;;;;;21068384;28;20044;-50
2021/12/23 21:31:02;;;;;;;6.15;3.03;;;0.20;99.90;;;;;;21065372;28;20040;-50
2021/12/23 21:41:05;;;;;;;3.15;1.92;;;0.90;99.90;;;;;;21065679;28;20360;-52
2021/12/23 21:51:10;;;;;;;2.95;1.77;;;1.70;99.90;;;;;;21078229;28;20445;-50
2021/12/23 22:01:13;;;;;;;4.03;1.70;;;2.30;99.90;;;;;;21080779;28;20032;-53
2021/12/23 22:11:16;;;;;;;1.92;1.20;;;2.40;99.90;;;;;;21079438;28;20109;-50
2021/12/23 22:21:19;;;;;;;3.70;1.65;;;2.40;99.90;;;;;;21079173;28;20368;-50
2021/12/23 22:31:23;;;;;;;3.13;1.38;;;2.30;99.90;;;;;;21077926;28;20032;-49
2021/12/23 22:41:25;;;;;;;2.55;1.30;;;2.30;99.90;;;;;;21078440;28;20040;-49
2021/12/23 22:51:28;;;;;;;2.55;1.35;;;2.80;99.90;;;;;;21076938;28;20070;-51
2021/12/23 23:01:31;;;;;;;2.03;1.58;;;2.90;99.90;;;;;;21075473;28;20179;-50
2021/12/23 23:11:37;;;;;;;2.78;1.17;;;3.10;99.90;;;;;;21075303;28;20499;-49
2021/12/23 23:21:40;;;;;;;4.10;1.02;;;3.40;99.90;;;;;;21074473;28;20025;-54
2021/12/23 23:42:05;;;;;;;3.70;1.60;;;3.80;99.90;;;;;;21072755;28;20028;-51
2021/12/23 23:52:08;;;;;;;2.80;1.65;;;3.60;99.90;;;;;;21071664;28;20101;-51
